sensor_id;sensor_type;location;lat;lon;timestamp;P1;durP1;ratioP1;P2;durP2;ratioP2
36789;SDS011;22740;52.182;8.780;2024-01-10T00:01:01;23.02;;;20.95;;
36789;SDS011;22740;52.182;8.780;2024-01-10T00:07:04;26.27;;;24.08;;
36789;SDS011;22740;52.182;8.780;2024-01-10T00:13:06;27.38;;;25.38;;
36789;SDS011;22740;52.182;8.780;2024-01-10T00:19:08;29.88;;;27.48;;
36789;SDS011;22740;52.182;8.780;2024-01-10T00:25:10;27.25;;;24.92;;
36789;SDS011;22740;52.182;8.780;2024-01-10T00:31:12;26.25;;;24.27;;
36789;SDS011;22740;52.182;8.780;2024-01-10T00:37:14;25.38;;;22.85;;
36789;SDS011;22740;52.182;8.780;2024-01-10T00:43:17;28.15;;;26.17;;
36789;SDS011;22740;52.182;8.780;2024-01-10T00:49:19;26.42;;;24.58;;
36789;SDS011;22740;52.182;8.780;2024-01-10T00:55:21;27.45;;;25.45;;
36789;SDS011;22740;52.182;8.780;2024-01-10T01:01:23;24.85;;;22.55;;
36789;SDS011;22740;52.182;8.780;2024-01-10T01:07:26;26.85;;;24.45;;
36789;SDS011;22740;52.182;8.780;2024-01-10T01:13:28;26.58;;;24.35;;
36789;SDS011;22740;52.182;8.780;2024-01-10T01:19:30;24.52;;;22.73;;
36789;SDS011;22740;52.182;8.780;2024-01-10T01:25:32;28.60;;;26.65;;
36789;SDS011;22740;52.182;8.780;2024-01-10T01:31:34;31.73;;;29.35;;
36789;SDS011;22740;52.182;8.780;2024-01-10T01:37:36;35.10;;;32.60;;
36789;SDS011;22740;52.182;8.780;2024-01-10T01:43:38;34.55;;;31.83;;
36789;SDS011;22740;52.182;8.780;2024-01-10T01:49:41;31.05;;;28.45;;
36789;SDS011;22740;52.182;8.780;2024-01-10T01:55:44;32.53;;;29.98;;
36789;SDS011;22740;52.182;8.780;2024-01-10T02:01:46;30.60;;;28.15;;
36789;SDS011;22740;52.182;8.780;2024-01-10T02:07:49;30.23;;;27.65;;
36789;SDS011;22740;52.182;8.780;2024-01-10T02:13:51;25.80;;;23.40;;
36789;SDS011;22740;52.182;8.780;2024-01-10T02:20:08;27.83;;;25.45;;
36789;SDS011;22740;52.182;8.780;2024-01-10T02:26:12;24.30;;;22.02;;
36789;SDS011;22740;52.182;8.780;2024-01-10T02:32:16;26.60;;;24.60;;
36789;SDS011;22740;52.182;8.780;2024-01-10T02:38:18;28.02;;;25.48;;
36789;SDS011;22740;52.182;8.780;2024-01-10T02:44:22;25.20;;;23.13;;
36789;SDS011;22740;52.182;8.780;2024-01-10T02:50:24;27.58;;;25.42;;
36789;SDS011;22740;52.182;8.780;2024-01-10T02:56:26;25.63;;;23.58;;
36789;SDS011;22740;52.182;8.780;2024-01-10T03:02:28;30.88;;;28.20;;
36789;SDS011;22740;52.182;8.780;2024-01-10T03:08:30;28.73;;;26.30;;
36789;SDS011;22740;52.182;8.780;2024-01-10T03:14:32;30.27;;;27.83;;
36789;SDS011;22740;52.182;8.780;2024-01-10T03:20:35;32.78;;;30.25;;
36789;SDS011;22740;52.182;8.780;2024-01-10T03:26:37;34.50;;;31.70;;
36789;SDS011;22740;52.182;8.780;2024-01-10T03:32:39;34.33;;;31.88;;
36789;SDS011;22740;52.182;8.780;2024-01-10T03:38:41;32.47;;;29.80;;
36789;SDS011;22740;52.182;8.780;2024-01-10T03:44:44;30.23;;;27.92;;
36789;SDS011;22740;52.182;8.780;2024-01-10T03:50:46;30.52;;;28.08;;
36789;SDS011;22740;52.182;8.780;2024-01-10T03:56:48;33.35;;;30.23;;
36789;SDS011;22740;52.182;8.780;2024-01-10T04:02:50;32.30;;;29.88;;
36789;SDS011;22740;52.182;8.780;2024-01-10T04:08:53;36.60;;;33.90;;
36789;SDS011;22740;52.182;8.780;2024-01-10T04:14:55;35.58;;;33.30;;
36789;SDS011;22740;52.182;8.780;2024-01-10T04:20:57;35.20;;;32.53;;
36789;SDS011;22740;52.182;8.780;2024-01-10T04:26:59;37.92;;;35.13;;
36789;SDS011;22740;52.182;8.780;2024-01-10T04:33:00;42.90;;;40.03;;
36789;SDS011;22740;52.182;8.780;2024-01-10T04:39:02;41.92;;;39.03;;
36789;SDS011;22740;52.182;8.780;2024-01-10T04:45:05;45.90;;;42.90;;
36789;SDS011;22740;52.182;8.780;2024-01-10T04:51:08;52.00;;;48.42;;
36789;SDS011;22740;52.182;8.780;2024-01-10T04:57:10;58.72;;;54.75;;
36789;SDS011;22740;52.182;8.780;2024-01-10T05:03:12;59.88;;;55.72;;
36789;SDS011;22740;52.182;8.780;2024-01-10T05:09:15;63.55;;;59.33;;
36789;SDS011;22740;52.182;8.780;2024-01-10T05:15:17;68.55;;;64.03;;
36789;SDS011;22740;52.182;8.780;2024-01-10T05:21:19;72.90;;;67.90;;
36789;SDS011;22740;52.182;8.780;2024-01-10T05:27:22;74.13;;;69.10;;
36789;SDS011;22740;52.182;8.780;2024-01-10T05:33:24;75.00;;;70.35;;
36789;SDS011;22740;52.182;8.780;2024-01-10T05:39:26;70.95;;;66.15;;
36789;SDS011;22740;52.182;8.780;2024-01-10T05:45:29;70.75;;;66.03;;
36789;SDS011;22740;52.182;8.780;2024-01-10T05:51:31;74.10;;;69.45;;
36789;SDS011;22740;52.182;8.780;2024-01-10T05:57:34;72.65;;;67.72;;
36789;SDS011;22740;52.182;8.780;2024-01-10T06:03:37;73.00;;;68.10;;
36789;SDS011;22740;52.182;8.780;2024-01-10T06:09:40;71.60;;;67.22;;
36789;SDS011;22740;52.182;8.780;2024-01-10T06:15:42;70.30;;;65.78;;
36789;SDS011;22740;52.182;8.780;2024-01-10T06:21:44;62.90;;;58.63;;
36789;SDS011;22740;52.182;8.780;2024-01-10T06:27:46;66.93;;;62.35;;
36789;SDS011;22740;52.182;8.780;2024-01-10T06:33:48;65.97;;;61.15;;
36789;SDS011;22740;52.182;8.780;2024-01-10T06:39:50;69.82;;;64.82;;
36789;SDS011;22740;52.182;8.780;2024-01-10T06:45:52;66.97;;;62.33;;
36789;SDS011;22740;52.182;8.780;2024-01-10T06:51:54;73.25;;;68.28;;
36789;SDS011;22740;52.182;8.780;2024-01-10T06:57:56;77.65;;;72.30;;
36789;SDS011;22740;52.182;8.780;2024-01-10T07:03:58;69.20;;;63.75;;
36789;SDS011;22740;52.182;8.780;2024-01-10T07:10:01;63.30;;;58.97;;
36789;SDS011;22740;52.182;8.780;2024-01-10T07:16:06;60.00;;;55.17;;
36789;SDS011;22740;52.182;8.780;2024-01-10T07:22:08;65.82;;;61.15;;
36789;SDS011;22740;52.182;8.780;2024-01-10T07:28:12;74.50;;;69.90;;
36789;SDS011;22740;52.182;8.780;2024-01-10T07:34:14;64.80;;;59.78;;
36789;SDS011;22740;52.182;8.780;2024-01-10T07:40:16;64.47;;;59.88;;
36789;SDS011;22740;52.182;8.780;2024-01-10T07:46:18;62.35;;;57.90;;
36789;SDS011;22740;52.182;8.780;2024-01-10T07:52:20;63.45;;;58.72;;
36789;SDS011;22740;52.182;8.780;2024-01-10T07:58:25;59.95;;;55.35;;
36789;SDS011;22740;52.182;8.780;2024-01-10T08:04:27;59.10;;;54.75;;
36789;SDS011;22740;52.182;8.780;2024-01-10T08:10:29;64.57;;;60.30;;
36789;SDS011;22740;52.182;8.780;2024-01-10T08:16:31;61.33;;;56.92;;
36789;SDS011;22740;52.182;8.780;2024-01-10T08:22:33;57.45;;;53.10;;
36789;SDS011;22740;52.182;8.780;2024-01-10T08:28:35;61.80;;;57.25;;
36789;SDS011;22740;52.182;8.780;2024-01-10T08:34:37;64.88;;;60.38;;
36789;SDS011;22740;52.182;8.780;2024-01-10T08:40:39;61.17;;;57.20;;
36789;SDS011;22740;52.182;8.780;2024-01-10T08:46:41;62.85;;;58.58;;
36789;SDS011;22740;52.182;8.780;2024-01-10T08:52:43;64.35;;;59.78;;
36789;SDS011;22740;52.182;8.780;2024-01-10T08:58:47;64.95;;;60.35;;
36789;SDS011;22740;52.182;8.780;2024-01-10T09:04:49;64.43;;;60.00;;
36789;SDS011;22740;52.182;8.780;2024-01-10T09:10:51;66.63;;;61.95;;
36789;SDS011;22740;52.182;8.780;2024-01-10T09:16:53;61.67;;;57.47;;
36789;SDS011;22740;52.182;8.780;2024-01-10T09:22:55;64.10;;;59.22;;
36789;SDS011;22740;52.182;8.780;2024-01-10T09:28:58;64.15;;;59.42;;
36789;SDS011;22740;52.182;8.780;2024-01-10T09:35:00;68.22;;;62.97;;
36789;SDS011;22740;52.182;8.780;2024-01-10T09:41:02;68.90;;;64.10;;
36789;SDS011;22740;52.182;8.780;2024-01-10T09:47:05;58.53;;;53.60;;
36789;SDS011;22740;52.182;8.780;2024-01-10T09:53:07;61.53;;;57.10;;
36789;SDS011;22740;52.182;8.780;2024-01-10T09:59:19;64.57;;;59.70;;
36789;SDS011;22740;52.182;8.780;2024-01-10T10:05:21;60.72;;;56.45;;
36789;SDS011;22740;52.182;8.780;2024-01-10T10:11:25;59.30;;;55.03;;
36789;SDS011;22740;52.182;8.780;2024-01-10T10:17:27;56.47;;;52.20;;
36789;SDS011;22740;52.182;8.780;2024-01-10T10:23:30;52.17;;;47.88;;
36789;SDS011;22740;52.182;8.780;2024-01-10T10:29:32;51.05;;;46.72;;
36789;SDS011;22740;52.182;8.780;2024-01-10T10:35:34;44.78;;;40.17;;
36789;SDS011;22740;52.182;8.780;2024-01-10T10:41:42;51.50;;;47.45;;
36789;SDS011;22740;52.182;8.780;2024-01-10T10:47:46;44.80;;;40.55;;
36789;SDS011;22740;52.182;8.780;2024-01-10T10:53:51;41.35;;;37.67;;
36789;SDS011;22740;52.182;8.780;2024-01-10T10:59:54;45.58;;;41.33;;
36789;SDS011;22740;52.182;8.780;2024-01-10T11:05:58;43.83;;;39.35;;
36789;SDS011;22740;52.182;8.780;2024-01-10T11:24:24;36.58;;;32.83;;
36789;SDS011;22740;52.182;8.780;2024-01-10T11:30:36;40.78;;;36.63;;
36789;SDS011;22740;52.182;8.780;2024-01-10T11:36:47;35.40;;;31.38;;
36789;SDS011;22740;52.182;8.780;2024-01-10T11:43:16;34.33;;;29.52;;
36789;SDS011;22740;52.182;8.780;2024-01-10T11:49:18;39.13;;;31.35;;
36789;SDS011;22740;52.182;8.780;2024-01-10T12:01:49;32.20;;;27.25;;
36789;SDS011;22740;52.182;8.780;2024-01-10T12:07:51;33.50;;;27.38;;
36789;SDS011;22740;52.182;8.780;2024-01-10T12:13:54;32.95;;;24.63;;
36789;SDS011;22740;52.182;8.780;2024-01-10T12:19:56;30.00;;;24.83;;
36789;SDS011;22740;52.182;8.780;2024-01-10T12:26:01;33.47;;;27.15;;
36789;SDS011;22740;52.182;8.780;2024-01-10T12:32:04;36.40;;;32.38;;
36789;SDS011;22740;52.182;8.780;2024-01-10T12:38:11;33.40;;;27.87;;
36789;SDS011;22740;52.182;8.780;2024-01-10T12:44:13;39.78;;;32.88;;
36789;SDS011;22740;52.182;8.780;2024-01-10T12:50:16;41.17;;;36.75;;
36789;SDS011;22740;52.182;8.780;2024-01-10T12:56:18;43.50;;;38.97;;
36789;SDS011;22740;52.182;8.780;2024-01-10T13:02:20;36.58;;;32.67;;
36789;SDS011;22740;52.182;8.780;2024-01-10T13:08:23;38.95;;;32.45;;
36789;SDS011;22740;52.182;8.780;2024-01-10T13:14:25;35.80;;;30.73;;
36789;SDS011;22740;52.182;8.780;2024-01-10T13:20:27;36.00;;;28.42;;
36789;SDS011;22740;52.182;8.780;2024-01-10T13:26:30;39.13;;;31.85;;
36789;SDS011;22740;52.182;8.780;2024-01-10T13:32:32;37.70;;;33.63;;
36789;SDS011;22740;52.182;8.780;2024-01-10T13:38:34;41.08;;;32.17;;
36789;SDS011;22740;52.182;8.780;2024-01-10T13:44:36;36.25;;;32.38;;
36789;SDS011;22740;52.182;8.780;2024-01-10T13:50:38;38.80;;;33.53;;
36789;SDS011;22740;52.182;8.780;2024-01-10T13:56:40;39.38;;;35.25;;
36789;SDS011;22740;52.182;8.780;2024-01-10T14:02:42;42.53;;;37.75;;
36789;SDS011;22740;52.182;8.780;2024-01-10T14:08:44;40.53;;;35.15;;
36789;SDS011;22740;52.182;8.780;2024-01-10T14:14:48;40.05;;;32.60;;
36789;SDS011;22740;52.182;8.780;2024-01-10T14:20:51;38.80;;;34.90;;
36789;SDS011;22740;52.182;8.780;2024-01-10T14:26:53;39.92;;;35.65;;
36789;SDS011;22740;52.182;8.780;2024-01-10T14:32:56;44.53;;;39.75;;
36789;SDS011;22740;52.182;8.780;2024-01-10T14:38:58;42.10;;;37.58;;
36789;SDS011;22740;52.182;8.780;2024-01-10T14:45:00;44.22;;;38.60;;
36789;SDS011;22740;52.182;8.780;2024-01-10T14:51:03;40.95;;;36.08;;
36789;SDS011;22740;52.182;8.780;2024-01-10T14:57:07;42.80;;;36.92;;
36789;SDS011;22740;52.182;8.780;2024-01-10T15:03:10;39.60;;;34.95;;
36789;SDS011;22740;52.182;8.780;2024-01-10T15:09:26;45.85;;;40.30;;
36789;SDS011;22740;52.182;8.780;2024-01-10T15:15:28;42.83;;;37.58;;
36789;SDS011;22740;52.182;8.780;2024-01-10T15:21:30;43.90;;;36.25;;
36789;SDS011;22740;52.182;8.780;2024-01-10T15:27:31;43.83;;;36.67;;
36789;SDS011;22740;52.182;8.780;2024-01-10T15:33:34;42.78;;;38.13;;
36789;SDS011;22740;52.182;8.780;2024-01-10T15:39:37;43.20;;;38.35;;
36789;SDS011;22740;52.182;8.780;2024-01-10T15:45:42;42.28;;;37.70;;
36789;SDS011;22740;52.182;8.780;2024-01-10T15:51:44;47.88;;;43.38;;
36789;SDS011;22740;52.182;8.780;2024-01-10T15:57:46;47.50;;;43.03;;
36789;SDS011;22740;52.182;8.780;2024-01-10T16:03:49;49.28;;;44.35;;
36789;SDS011;22740;52.182;8.780;2024-01-10T16:09:51;48.22;;;41.95;;
36789;SDS011;22740;52.182;8.780;2024-01-10T16:15:53;44.15;;;39.72;;
36789;SDS011;22740;52.182;8.780;2024-01-10T16:21:56;47.17;;;42.27;;
36789;SDS011;22740;52.182;8.780;2024-01-10T16:27:58;42.72;;;37.78;;
36789;SDS011;22740;52.182;8.780;2024-01-10T16:34:00;42.00;;;37.65;;
36789;SDS011;22740;52.182;8.780;2024-01-10T16:40:02;46.53;;;36.72;;
36789;SDS011;22740;52.182;8.780;2024-01-10T16:46:05;43.10;;;35.05;;
36789;SDS011;22740;52.182;8.780;2024-01-10T16:52:08;40.60;;;34.78;;
36789;SDS011;22740;52.182;8.780;2024-01-10T16:58:10;45.05;;;38.53;;
36789;SDS011;22740;52.182;8.780;2024-01-10T17:04:12;40.15;;;35.85;;
36789;SDS011;22740;52.182;8.780;2024-01-10T17:10:14;42.70;;;32.65;;
36789;SDS011;22740;52.182;8.780;2024-01-10T17:16:16;45.30;;;34.17;;
36789;SDS011;22740;52.182;8.780;2024-01-10T17:22:18;40.40;;;36.10;;
36789;SDS011;22740;52.182;8.780;2024-01-10T17:28:20;40.83;;;36.42;;
36789;SDS011;22740;52.182;8.780;2024-01-10T17:34:23;41.00;;;36.53;;
36789;SDS011;22740;52.182;8.780;2024-01-10T17:40:26;39.50;;;35.55;;
36789;SDS011;22740;52.182;8.780;2024-01-10T17:46:28;45.47;;;36.08;;
36789;SDS011;22740;52.182;8.780;2024-01-10T17:52:30;46.90;;;38.17;;
36789;SDS011;22740;52.182;8.780;2024-01-10T17:58:32;47.30;;;36.92;;
36789;SDS011;22740;52.182;8.780;2024-01-10T18:04:34;44.45;;;36.53;;
36789;SDS011;22740;52.182;8.780;2024-01-10T18:10:36;45.17;;;40.30;;
36789;SDS011;22740;52.182;8.780;2024-01-10T18:16:38;57.28;;;39.88;;
36789;SDS011;22740;52.182;8.780;2024-01-10T18:22:40;49.10;;;40.63;;
36789;SDS011;22740;52.182;8.780;2024-01-10T18:28:42;44.33;;;39.33;;
36789;SDS011;22740;52.182;8.780;2024-01-10T18:34:45;45.10;;;38.60;;
36789;SDS011;22740;52.182;8.780;2024-01-10T18:40:47;43.50;;;38.60;;
36789;SDS011;22740;52.182;8.780;2024-01-10T18:46:49;50.88;;;40.60;;
36789;SDS011;22740;52.182;8.780;2024-01-10T18:52:52;57.30;;;43.73;;
36789;SDS011;22740;52.182;8.780;2024-01-10T18:58:57;48.03;;;36.75;;
36789;SDS011;22740;52.182;8.780;2024-01-10T19:04:59;44.38;;;29.42;;
36789;SDS011;22740;52.182;8.780;2024-01-10T19:11:01;46.92;;;34.38;;
36789;SDS011;22740;52.182;8.780;2024-01-10T19:17:06;39.97;;;34.30;;
36789;SDS011;22740;52.182;8.780;2024-01-10T19:23:08;41.83;;;31.98;;
36789;SDS011;22740;52.182;8.780;2024-01-10T19:35:14;46.47;;;37.38;;
36789;SDS011;22740;52.182;8.780;2024-01-10T19:41:20;47.00;;;41.83;;
36789;SDS011;22740;52.182;8.780;2024-01-10T19:47:22;48.80;;;43.67;;
36789;SDS011;22740;52.182;8.780;2024-01-10T19:53:25;50.80;;;45.30;;
36789;SDS011;22740;52.182;8.780;2024-01-10T19:59:27;50.42;;;45.47;;
36789;SDS011;22740;52.182;8.780;2024-01-10T20:05:29;50.67;;;45.28;;
36789;SDS011;22740;52.182;8.780;2024-01-10T20:11:31;46.67;;;41.80;;
36789;SDS011;22740;52.182;8.780;2024-01-10T20:17:34;49.45;;;39.60;;
36789;SDS011;22740;52.182;8.780;2024-01-10T20:23:36;46.30;;;36.88;;
36789;SDS011;22740;52.182;8.780;2024-01-10T20:29:38;49.03;;;44.05;;
36789;SDS011;22740;52.182;8.780;2024-01-10T20:35:41;54.00;;;46.23;;
36789;SDS011;22740;52.182;8.780;2024-01-10T20:41:44;52.28;;;46.65;;
36789;SDS011;22740;52.182;8.780;2024-01-10T20:47:47;53.20;;;47.58;;
36789;SDS011;22740;52.182;8.780;2024-01-10T20:53:49;54.95;;;49.75;;
36789;SDS011;22740;52.182;8.780;2024-01-10T20:59:51;51.88;;;46.22;;
36789;SDS011;22740;52.182;8.780;2024-01-10T21:05:55;54.45;;;47.88;;
36789;SDS011;22740;52.182;8.780;2024-01-10T21:11:58;49.53;;;44.10;;
36789;SDS011;22740;52.182;8.780;2024-01-10T21:18:00;50.55;;;44.97;;
36789;SDS011;22740;52.182;8.780;2024-01-10T21:24:03;47.40;;;42.30;;
36789;SDS011;22740;52.182;8.780;2024-01-10T21:30:05;47.22;;;42.17;;
36789;SDS011;22740;52.182;8.780;2024-01-10T21:36:08;52.92;;;44.28;;
36789;SDS011;22740;52.182;8.780;2024-01-10T21:42:10;49.25;;;43.97;;
36789;SDS011;22740;52.182;8.780;2024-01-10T21:48:12;49.05;;;43.78;;
36789;SDS011;22740;52.182;8.780;2024-01-10T21:54:15;45.63;;;40.17;;
36789;SDS011;22740;52.182;8.780;2024-01-10T22:00:17;47.88;;;41.20;;
36789;SDS011;22740;52.182;8.780;2024-01-10T22:06:19;49.28;;;44.08;;
36789;SDS011;22740;52.182;8.780;2024-01-10T22:12:21;49.90;;;44.83;;
36789;SDS011;22740;52.182;8.780;2024-01-10T22:18:26;47.30;;;42.88;;
36789;SDS011;22740;52.182;8.780;2024-01-10T22:24:28;49.28;;;44.35;;
36789;SDS011;22740;52.182;8.780;2024-01-10T22:30:30;52.40;;;47.45;;
36789;SDS011;22740;52.182;8.780;2024-01-10T22:36:32;48.13;;;43.22;;
36789;SDS011;22740;52.182;8.780;2024-01-10T22:42:34;53.30;;;47.72;;
36789;SDS011;22740;52.182;8.780;2024-01-10T22:48:37;53.20;;;47.33;;
36789;SDS011;22740;52.182;8.780;2024-01-10T22:54:39;52.50;;;47.38;;
36789;SDS011;22740;52.182;8.780;2024-01-10T23:00:42;58.85;;;53.20;;
36789;SDS011;22740;52.182;8.780;2024-01-10T23:06:45;56.28;;;50.75;;
36789;SDS011;22740;52.182;8.780;2024-01-10T23:12:47;53.08;;;47.92;;
36789;SDS011;22740;52.182;8.780;2024-01-10T23:18:49;55.03;;;49.50;;
36789;SDS011;22740;52.182;8.780;2024-01-10T23:24:52;51.63;;;46.42;;
36789;SDS011;22740;52.182;8.780;2024-01-10T23:30:53;56.08;;;50.58;;
36789;SDS011;22740;52.182;8.780;2024-01-10T23:36:55;54.50;;;49.40;;
36789;SDS011;22740;52.182;8.780;2024-01-10T23:42:58;54.50;;;49.13;;
36789;SDS011;22740;52.182;8.780;2024-01-10T23:49:10;45.63;;;41.13;;
36789;SDS011;22740;52.182;8.780;2024-01-10T23:55:12;48.63;;;44.08;;
